sensor_id;sensor_type;location;lat;lon;timestamp;pressure;altitude;pressure_sealevel;temperature;humidity
10008;BME280;5043;41.766;26.204;2024-03-07T00:01:12;101197.72;;;9.29;93.67
10008;BME280;5043;41.766;26.204;2024-03-07T00:03:38;101187.31;;;9.27;93.61
10008;BME280;5043;41.766;26.204;2024-03-07T00:06:04;101198.16;;;9.37;93.32
10008;BME280;5043;41.766;26.204;2024-03-07T00:08:29;101194.75;;;9.35;92.69
10008;BME280;5043;41.766;26.204;2024-03-07T00:10:56;101200.59;;;9.40;93.07
10008;BME280;5043;41.766;26.204;2024-03-07T00:13:21;101194.56;;;9.38;93.11
10008;BME280;5043;41.766;26.204;2024-03-07T00:15:47;101196.53;;;9.34;93.45
10008;BME280;5043;41.766;26.204;2024-03-07T00:18:12;101227.09;;;9.37;93.13
10008;BME280;5043;41.766;26.204;2024-03-07T00:20:40;101216.41;;;9.40;93.06
10008;BME280;5043;41.766;26.204;2024-03-07T00:23:05;101185.59;;;9.26;93.05
10008;BME280;5043;41.766;26.204;2024-03-07T00:25:31;101197.97;;;9.40;92.65
10008;BME280;5043;41.766;26.204;2024-03-07T00:27:57;101187.88;;;9.32;93.20
10008;BME280;5043;41.766;26.204;2024-03-07T00:30:28;101181.59;;;9.35;92.78
10008;BME280;5043;41.766;26.204;2024-03-07T00:32:55;101184.88;;;9.38;93.23
10008;BME280;5043;41.766;26.204;2024-03-07T00:35:21;101182.25;;;9.38;92.62
10008;BME280;5043;41.766;26.204;2024-03-07T00:37:47;101175.66;;;9.31;93.01
10008;BME280;5043;41.766;26.204;2024-03-07T00:40:13;101184.97;;;9.37;92.92
10008;BME280;5043;41.766;26.204;2024-03-07T00:42:38;101162.75;;;9.27;93.03
10008;BME280;5043;41.766;26.204;2024-03-07T00:45:05;101168.78;;;9.29;93.39
10008;BME280;5043;41.766;26.204;2024-03-07T00:47:30;101177.63;;;9.28;93.60
10008;BME280;5043;41.766;26.204;2024-03-07T00:49:57;101146.06;;;9.12;93.59
10008;BME280;5043;41.766;26.204;2024-03-07T00:52:23;101148.81;;;9.11;93.69
10008;BME280;5043;41.766;26.204;2024-03-07T00:54:48;101129.16;;;9.02;94.43
10008;BME280;5043;41.766;26.204;2024-03-07T00:57:15;101152.94;;;9.15;94.43
10008;BME280;5043;41.766;26.204;2024-03-07T00:59:40;101157.28;;;9.16;94.55
10008;BME280;5043;41.766;26.204;2024-03-07T01:02:06;101160.13;;;9.27;94.35
10008;BME280;5043;41.766;26.204;2024-03-07T01:04:32;101151.84;;;9.19;94.67
10008;BME280;5043;41.766;26.204;2024-03-07T01:06:59;101144.72;;;9.21;94.66
10008;BME280;5043;41.766;26.204;2024-03-07T01:09:25;101155.13;;;9.22;95.04
10008;BME280;5043;41.766;26.204;2024-03-07T01:11:53;101160.97;;;9.27;94.86
10008;BME280;5043;41.766;26.204;2024-03-07T01:14:18;101164.53;;;9.26;94.79
10008;BME280;5043;41.766;26.204;2024-03-07T01:16:44;101152.03;;;9.16;95.39
10008;BME280;5043;41.766;26.204;2024-03-07T01:19:09;101168.28;;;9.22;95.05
10008;BME280;5043;41.766;26.204;2024-03-07T01:21:35;101153.53;;;9.20;95.03
10008;BME280;5043;41.766;26.204;2024-03-07T01:24:01;101161.25;;;9.23;95.14
10008;BME280;5043;41.766;26.204;2024-03-07T01:26:30;101125.28;;;9.08;95.20
10008;BME280;5043;41.766;26.204;2024-03-07T01:28:59;101159.75;;;9.19;95.63
10008;BME280;5043;41.766;26.204;2024-03-07T01:31:25;101148.38;;;9.18;95.59
10008;BME280;5043;41.766;26.204;2024-03-07T01:33:51;101127.28;;;9.04;95.75
10008;BME280;5043;41.766;26.204;2024-03-07T01:36:18;101135.81;;;9.08;95.78
10008;BME280;5043;41.766;26.204;2024-03-07T01:38:44;101138.81;;;9.02;96.07
10008;BME280;5043;41.766;26.204;2024-03-07T01:41:09;101115.00;;;8.89;96.48
10008;BME280;5043;41.766;26.204;2024-03-07T01:43:34;101145.59;;;9.06;96.56
10008;BME280;5043;41.766;26.204;2024-03-07T01:46:00;101140.53;;;9.03;96.59
10008;BME280;5043;41.766;26.204;2024-03-07T01:48:29;101127.53;;;8.99;96.76
10008;BME280;5043;41.766;26.204;2024-03-07T01:50:59;101133.19;;;9.08;96.30
10008;BME280;5043;41.766;26.204;2024-03-07T01:53:27;101135.28;;;9.03;96.98
10008;BME280;5043;41.766;26.204;2024-03-07T01:55:53;101143.72;;;9.08;96.98
10008;BME280;5043;41.766;26.204;2024-03-07T01:58:23;101137.34;;;9.12;96.80
10008;BME280;5043;41.766;26.204;2024-03-07T02:00:49;101114.22;;;9.03;96.26
10008;BME280;5043;41.766;26.204;2024-03-07T02:03:14;101138.00;;;9.15;96.12
10008;BME280;5043;41.766;26.204;2024-03-07T02:05:40;101141.94;;;9.08;96.48
10008;BME280;5043;41.766;26.204;2024-03-07T02:08:06;101146.06;;;9.12;96.28
10008;BME280;5043;41.766;26.204;2024-03-07T02:10:32;101135.06;;;9.06;96.47
10008;BME280;5043;41.766;26.204;2024-03-07T02:12:57;101145.91;;;9.15;96.05
10008;BME280;5043;41.766;26.204;2024-03-07T02:15:23;101147.31;;;9.07;96.26
10008;BME280;5043;41.766;26.204;2024-03-07T02:17:48;101134.31;;;9.04;96.26
10008;BME280;5043;41.766;26.204;2024-03-07T02:20:14;101123.03;;;9.02;96.38
10008;BME280;5043;41.766;26.204;2024-03-07T02:22:41;101129.81;;;9.06;96.53
10008;BME280;5043;41.766;26.204;2024-03-07T02:25:07;101115.41;;;8.97;96.48
10008;BME280;5043;41.766;26.204;2024-03-07T02:27:35;101118.78;;;8.99;96.38
10008;BME280;5043;41.766;26.204;2024-03-07T02:30:01;101157.72;;;9.08;96.31
10008;BME280;5043;41.766;26.204;2024-03-07T02:32:29;101139.31;;;9.08;96.30
10008;BME280;5043;41.766;26.204;2024-03-07T02:34:54;101117.03;;;8.99;96.46
10008;BME280;5043;41.766;26.204;2024-03-07T02:37:20;101133.94;;;9.10;96.47
10008;BME280;5043;41.766;26.204;2024-03-07T02:39:45;101123.19;;;8.98;96.43
10008;BME280;5043;41.766;26.204;2024-03-07T02:42:11;101126.59;;;9.00;96.75
10008;BME280;5043;41.766;26.204;2024-03-07T02:44:36;101111.81;;;8.98;96.69
10008;BME280;5043;41.766;26.204;2024-03-07T02:47:04;101144.28;;;9.13;96.62
10008;BME280;5043;41.766;26.204;2024-03-07T02:49:30;101123.34;;;9.11;96.69
10008;BME280;5043;41.766;26.204;2024-03-07T02:51:55;101131.53;;;9.21;96.42
10008;BME280;5043;41.766;26.204;2024-03-07T02:54:20;101161.09;;;9.26;96.50
10008;BME280;5043;41.766;26.204;2024-03-07T02:56:46;101135.56;;;9.26;96.10
10008;BME280;5043;41.766;26.204;2024-03-07T02:59:12;101140.84;;;9.26;96.48
10008;BME280;5043;41.766;26.204;2024-03-07T03:01:37;101132.78;;;9.29;96.53
10008;BME280;5043;41.766;26.204;2024-03-07T03:04:02;101109.34;;;9.11;96.65
10008;BME280;5043;41.766;26.204;2024-03-07T03:06:28;101127.88;;;9.23;97.03
10008;BME280;5043;41.766;26.204;2024-03-07T03:08:53;101125.44;;;9.20;96.86
10008;BME280;5043;41.766;26.204;2024-03-07T03:11:20;101128.16;;;9.19;97.31
10008;BME280;5043;41.766;26.204;2024-03-07T03:13:45;101109.72;;;9.05;97.91
10008;BME280;5043;41.766;26.204;2024-03-07T03:16:13;101123.16;;;9.14;97.81
10008;BME280;5043;41.766;26.204;2024-03-07T03:18:38;101138.59;;;9.20;98.19
10008;BME280;5043;41.766;26.204;2024-03-07T03:21:04;101124.50;;;9.21;97.89
10008;BME280;5043;41.766;26.204;2024-03-07T03:23:30;101129.75;;;9.21;98.09
10008;BME280;5043;41.766;26.204;2024-03-07T03:25:56;101127.59;;;9.14;98.74
10008;BME280;5043;41.766;26.204;2024-03-07T03:28:22;101136.84;;;9.05;99.16
10008;BME280;5043;41.766;26.204;2024-03-07T03:30:49;101076.72;;;8.69;99.12
10008;BME280;5043;41.766;26.204;2024-03-07T03:33:15;101133.47;;;9.03;99.64
10008;BME280;5043;41.766;26.204;2024-03-07T03:35:41;101152.47;;;9.08;100.00
10008;BME280;5043;41.766;26.204;2024-03-07T03:38:07;101139.25;;;8.94;100.00
10008;BME280;5043;41.766;26.204;2024-03-07T03:40:33;101149.53;;;8.98;100.00
10008;BME280;5043;41.766;26.204;2024-03-07T03:42:59;101130.88;;;8.87;100.00
10008;BME280;5043;41.766;26.204;2024-03-07T03:45:25;101137.03;;;9.02;100.00
10008;BME280;5043;41.766;26.204;2024-03-07T03:47:51;101123.66;;;8.91;100.00
10008;BME280;5043;41.766;26.204;2024-03-07T03:50:16;101125.94;;;8.97;100.00
10008;BME280;5043;41.766;26.204;2024-03-07T03:52:43;101140.44;;;9.04;100.00
10008;BME280;5043;41.766;26.204;2024-03-07T03:55:09;101138.56;;;9.06;100.00
10008;BME280;5043;41.766;26.204;2024-03-07T03:57:35;101114.56;;;8.96;100.00
10008;BME280;5043;41.766;26.204;2024-03-07T04:00:01;101123.19;;;8.98;100.00
10008;BME280;5043;41.766;26.204;2024-03-07T04:02:35;101146.94;;;9.13;100.00
10008;BME280;5043;41.766;26.204;2024-03-07T04:05:05;101096.69;;;8.87;100.00
10008;BME280;5043;41.766;26.204;2024-03-07T04:07:30;101140.25;;;9.07;100.00
10008;BME280;5043;41.766;26.204;2024-03-07T04:10:00;101145.59;;;9.06;100.00
10008;BME280;5043;41.766;26.204;2024-03-07T04:12:28;101130.06;;;9.01;100.00
10008;BME280;5043;41.766;26.204;2024-03-07T04:14:53;101167.41;;;9.08;100.00
10008;BME280;5043;41.766;26.204;2024-03-07T04:17:20;101147.88;;;9.12;100.00
10008;BME280;5043;41.766;26.204;2024-03-07T04:19:46;101152.28;;;9.11;100.00
10008;BME280;5043;41.766;26.204;2024-03-07T04:22:12;101154.25;;;9.08;100.00
10008;BME280;5043;41.766;26.204;2024-03-07T04:24:38;101133.56;;;9.02;100.00
10008;BME280;5043;41.766;26.204;2024-03-07T04:27:04;101156.06;;;9.07;100.00
10008;BME280;5043;41.766;26.204;2024-03-07T04:29:31;101142.22;;;9.04;100.00
10008;BME280;5043;41.766;26.204;2024-03-07T04:31:57;101137.22;;;8.99;100.00
10008;BME280;5043;41.766;26.204;2024-03-07T04:34:23;101123.84;;;8.88;100.00
10008;BME280;5043;41.766;26.204;2024-03-07T04:36:48;101106.03;;;8.77;100.00
10008;BME280;5043;41.766;26.204;2024-03-07T04:39:14;101146.81;;;9.00;100.00
10008;BME280;5043;41.766;26.204;2024-03-07T04:42:03;101158.38;;;8.97;100.00
10008;BME280;5043;41.766;26.204;2024-03-07T04:44:30;101154.63;;;9.02;100.00
10008;BME280;5043;41.766;26.204;2024-03-07T04:46:57;101120.53;;;8.84;100.00
10008;BME280;5043;41.766;26.204;2024-03-07T04:49:23;101155.06;;;8.94;100.00
10008;BME280;5043;41.766;26.204;2024-03-07T04:51:53;101153.53;;;8.90;100.00
10008;BME280;5043;41.766;26.204;2024-03-07T04:54:19;101157.34;;;8.84;100.00
10008;BME280;5043;41.766;26.204;2024-03-07T04:56:45;101160.09;;;8.83;100.00
10008;BME280;5043;41.766;26.204;2024-03-07T04:59:11;101115.25;;;8.55;100.00
10008;BME280;5043;41.766;26.204;2024-03-07T05:01:38;101167.88;;;8.84;100.00
10008;BME280;5043;41.766;26.204;2024-03-07T05:04:04;101149.72;;;8.80;100.00
10008;BME280;5043;41.766;26.204;2024-03-07T05:06:29;101178.41;;;8.84;100.00
10008;BME280;5043;41.766;26.204;2024-03-07T05:08:56;101145.31;;;8.80;100.00
10008;BME280;5043;41.766;26.204;2024-03-07T05:11:21;101153.63;;;8.88;100.00
10008;BME280;5043;41.766;26.204;2024-03-07T05:13:46;101161.88;;;8.82;100.00
10008;BME280;5043;41.766;26.204;2024-03-07T05:16:13;101139.09;;;8.67;100.00
10008;BME280;5043;41.766;26.204;2024-03-07T05:18:39;101142.09;;;8.75;100.00
10008;BME280;5043;41.766;26.204;2024-03-07T05:21:05;101167.72;;;8.87;100.00
10008;BME280;5043;41.766;26.204;2024-03-07T05:23:51;101162.81;;;8.81;100.00
10008;BME280;5043;41.766;26.204;2024-03-07T05:26:17;101174.16;;;8.82;100.00
10008;BME280;5043;41.766;26.204;2024-03-07T05:28:42;101155.94;;;8.79;100.00
10008;BME280;5043;41.766;26.204;2024-03-07T05:31:08;101101.94;;;8.42;100.00
10008;BME280;5043;41.766;26.204;2024-03-07T05:33:37;101196.75;;;8.86;100.00
10008;BME280;5043;41.766;26.204;2024-03-07T05:36:04;101120.34;;;8.58;100.00
10008;BME280;5043;41.766;26.204;2024-03-07T05:38:40;101151.44;;;8.81;100.00
10008;BME280;5043;41.766;26.204;2024-03-07T05:41:09;101165.94;;;8.88;100.00
10008;BME280;5043;41.766;26.204;2024-03-07T05:43:36;101173.56;;;8.92;100.00
10008;BME280;5043;41.766;26.204;2024-03-07T05:46:03;101168.56;;;8.88;100.00
10008;BME280;5043;41.766;26.204;2024-03-07T05:48:29;101178.41;;;8.84;100.00
10008;BME280;5043;41.766;26.204;2024-03-07T05:50:54;101170.94;;;8.92;100.00
10008;BME280;5043;41.766;26.204;2024-03-07T05:53:20;101162.34;;;8.89;100.00
10008;BME280;5043;41.766;26.204;2024-03-07T05:55:46;101146.66;;;8.87;100.00
10008;BME280;5043;41.766;26.204;2024-03-07T05:58:11;101161.25;;;8.93;100.00
10008;BME280;5043;41.766;26.204;2024-03-07T06:00:37;101184.16;;;9.07;100.00
10008;BME280;5043;41.766;26.204;2024-03-07T06:03:06;101174.16;;;8.97;100.00
10008;BME280;5043;41.766;26.204;2024-03-07T06:05:33;101184.22;;;9.05;100.00
10008;BME280;5043;41.766;26.204;2024-03-07T06:07:59;101179.59;;;8.94;100.00
10008;BME280;5043;41.766;26.204;2024-03-07T06:10:24;101177.81;;;8.95;100.00
10008;BME280;5043;41.766;26.204;2024-03-07T06:12:51;101192.63;;;9.12;100.00
10008;BME280;5043;41.766;26.204;2024-03-07T06:18:20;101170.78;;;8.95;100.00
10008;BME280;5043;41.766;26.204;2024-03-07T06:20:46;101197.34;;;9.21;100.00
10008;BME280;5043;41.766;26.204;2024-03-07T06:23:12;101172.50;;;9.11;100.00
10008;BME280;5043;41.766;26.204;2024-03-07T06:25:38;101188.59;;;9.20;100.00
10008;BME280;5043;41.766;26.204;2024-03-07T06:28:16;101193.44;;;9.28;100.00
10008;BME280;5043;41.766;26.204;2024-03-07T06:30:43;101191.84;;;9.39;100.00
10008;BME280;5043;41.766;26.204;2024-03-07T06:33:10;101138.44;;;9.08;100.00
10008;BME280;5043;41.766;26.204;2024-03-07T06:35:36;101197.97;;;9.40;100.00
10008;BME280;5043;41.766;26.204;2024-03-07T06:38:11;101188.38;;;9.39;100.00
10008;BME280;5043;41.766;26.204;2024-03-07T06:40:41;101179.44;;;9.41;100.00
10008;BME280;5043;41.766;26.204;2024-03-07T06:43:08;101196.47;;;9.50;100.00
10008;BME280;5043;41.766;26.204;2024-03-07T06:45:39;101205.97;;;9.52;100.00
10008;BME280;5043;41.766;26.204;2024-03-07T06:48:05;101176.06;;;9.39;100.00
10008;BME280;5043;41.766;26.204;2024-03-07T06:50:36;101198.06;;;9.52;100.00
10008;BME280;5043;41.766;26.204;2024-03-07T06:53:06;101190.28;;;9.51;100.00
10008;BME280;5043;41.766;26.204;2024-03-07T06:55:32;101181.63;;;9.49;100.00
10008;BME280;5043;41.766;26.204;2024-03-07T06:58:01;101203.66;;;9.62;100.00
10008;BME280;5043;41.766;26.204;2024-03-07T07:00:31;101194.25;;;9.58;100.00
10008;BME280;5043;41.766;26.204;2024-03-07T07:03:02;101208.91;;;9.62;100.00
10008;BME280;5043;41.766;26.204;2024-03-07T07:05:31;101215.34;;;9.72;100.00
10008;BME280;5043;41.766;26.204;2024-03-07T07:07:56;101200.84;;;9.79;99.85
10008;BME280;5043;41.766;26.204;2024-03-07T07:10:22;101206.69;;;9.84;99.58
10008;BME280;5043;41.766;26.204;2024-03-07T07:12:50;101202.19;;;9.86;99.54
10008;BME280;5043;41.766;26.204;2024-03-07T07:15:18;101188.53;;;9.80;98.55
10008;BME280;5043;41.766;26.204;2024-03-07T07:17:46;101209.50;;;9.95;98.54
10008;BME280;5043;41.766;26.204;2024-03-07T07:20:14;101207.34;;;9.88;98.87
10008;BME280;5043;41.766;26.204;2024-03-07T07:22:47;101211.03;;;10.13;98.36
10008;BME280;5043;41.766;26.204;2024-03-07T07:25:13;101205.59;;;10.16;97.72
10008;BME280;5043;41.766;26.204;2024-03-07T07:27:47;101204.25;;;10.23;97.44
10008;BME280;5043;41.766;26.204;2024-03-07T07:30:14;101200.69;;;10.24;97.20
10008;BME280;5043;41.766;26.204;2024-03-07T07:32:40;101195.31;;;10.26;97.02
10008;BME280;5043;41.766;26.204;2024-03-07T07:35:07;101184.09;;;10.22;97.12
10008;BME280;5043;41.766;26.204;2024-03-07T07:37:45;101192.84;;;10.37;97.50
10008;BME280;5043;41.766;26.204;2024-03-07T07:40:12;101196.69;;;10.46;97.43
10008;BME280;5043;41.766;26.204;2024-03-07T07:42:47;101194.91;;;10.46;96.75
10008;BME280;5043;41.766;26.204;2024-03-07T07:45:14;101191.03;;;10.52;96.22
10008;BME280;5043;41.766;26.204;2024-03-07T07:47:41;101188.97;;;10.57;95.88
10008;BME280;5043;41.766;26.204;2024-03-07T07:50:12;101174.72;;;10.59;95.63
10008;BME280;5043;41.766;26.204;2024-03-07T07:52:51;101193.69;;;10.78;95.51
10008;BME280;5043;41.766;26.204;2024-03-07T07:55:19;101192.94;;;10.76;95.36
10008;BME280;5043;41.766;26.204;2024-03-07T07:57:49;101190.00;;;10.81;95.24
10008;BME280;5043;41.766;26.204;2024-03-07T08:00:18;101193.19;;;10.86;94.57
10008;BME280;5043;41.766;26.204;2024-03-07T08:05:19;101198.47;;;11.13;94.09
10008;BME280;5043;41.766;26.204;2024-03-07T08:07:45;101203.97;;;11.22;92.92
10008;BME280;5043;41.766;26.204;2024-03-07T08:10:13;101209.19;;;11.36;92.14
10008;BME280;5043;41.766;26.204;2024-03-07T08:12:39;101209.41;;;11.46;91.63
10008;BME280;5043;41.766;26.204;2024-03-07T08:15:12;101203.38;;;11.56;90.07
10008;BME280;5043;41.766;26.204;2024-03-07T08:17:48;101202.59;;;11.68;89.38
10008;BME280;5043;41.766;26.204;2024-03-07T08:20:16;101207.88;;;11.68;89.57
10008;BME280;5043;41.766;26.204;2024-03-07T08:22:52;101207.63;;;11.59;88.82
10008;BME280;5043;41.766;26.204;2024-03-07T08:25:19;101217.03;;;11.50;89.67
10008;BME280;5043;41.766;26.204;2024-03-07T08:27:47;101217.34;;;11.58;89.94
10008;BME280;5043;41.766;26.204;2024-03-07T08:30:14;101219.78;;;11.61;89.63
10008;BME280;5043;41.766;26.204;2024-03-07T08:35:07;101221.22;;;11.40;90.88
10008;BME280;5043;41.766;26.204;2024-03-07T08:37:38;101217.38;;;11.19;91.63
10008;BME280;5043;41.766;26.204;2024-03-07T08:40:05;101230.16;;;11.13;92.07
10008;BME280;5043;41.766;26.204;2024-03-07T08:42:36;101238.75;;;11.02;92.68
10008;BME280;5043;41.766;26.204;2024-03-07T08:45:03;101241.91;;;10.94;93.12
10008;BME280;5043;41.766;26.204;2024-03-07T08:47:34;101247.81;;;10.98;93.08
10008;BME280;5043;41.766;26.204;2024-03-07T08:50:01;101241.63;;;10.99;93.62
10008;BME280;5043;41.766;26.204;2024-03-07T08:52:27;101238.97;;;10.99;93.63
10008;BME280;5043;41.766;26.204;2024-03-07T08:54:54;101249.72;;;10.96;93.60
10008;BME280;5043;41.766;26.204;2024-03-07T08:57:20;101255.63;;;10.99;93.74
10008;BME280;5043;41.766;26.204;2024-03-07T08:59:47;101232.84;;;10.98;93.65
10008;BME280;5043;41.766;26.204;2024-03-07T09:02:14;101246.81;;;10.86;93.94
10008;BME280;5043;41.766;26.204;2024-03-07T09:04:40;101243.25;;;10.87;94.80
10008;BME280;5043;41.766;26.204;2024-03-07T09:07:06;101243.13;;;10.89;94.96
10008;BME280;5043;41.766;26.204;2024-03-07T09:09:33;101252.81;;;11.02;95.39
10008;BME280;5043;41.766;26.204;2024-03-07T09:12:00;101249.63;;;10.97;95.73
10008;BME280;5043;41.766;26.204;2024-03-07T09:14:27;101241.22;;;10.78;96.52
10008;BME280;5043;41.766;26.204;2024-03-07T09:16:53;101250.31;;;10.87;97.21
10008;BME280;5043;41.766;26.204;2024-03-07T09:19:19;101260.44;;;10.80;97.19
10008;BME280;5043;41.766;26.204;2024-03-07T09:21:52;101249.94;;;10.79;98.83
10008;BME280;5043;41.766;26.204;2024-03-07T09:24:18;101267.75;;;10.89;98.93
10008;BME280;5043;41.766;26.204;2024-03-07T09:26:50;101248.72;;;10.84;98.88
10008;BME280;5043;41.766;26.204;2024-03-07T09:29:19;101252.56;;;10.93;98.59
10008;BME280;5043;41.766;26.204;2024-03-07T09:31:45;101263.19;;;11.05;98.50
10008;BME280;5043;41.766;26.204;2024-03-07T09:34:12;101264.59;;;11.11;98.92
10008;BME280;5043;41.766;26.204;2024-03-07T09:36:38;101254.66;;;11.15;99.13
10008;BME280;5043;41.766;26.204;2024-03-07T09:39:04;101260.81;;;11.28;99.13
10008;BME280;5043;41.766;26.204;2024-03-07T09:41:31;101255.53;;;11.28;99.13
10008;BME280;5043;41.766;26.204;2024-03-07T09:43:57;101261.34;;;11.33;99.07
10008;BME280;5043;41.766;26.204;2024-03-07T09:46:24;101231.94;;;11.12;98.86
10008;BME280;5043;41.766;26.204;2024-03-07T09:48:50;101245.25;;;11.23;99.45
10008;BME280;5043;41.766;26.204;2024-03-07T09:51:23;101253.09;;;11.25;99.32
10008;BME280;5043;41.766;26.204;2024-03-07T09:53:50;101253.59;;;11.17;100.00
10008;BME280;5043;41.766;26.204;2024-03-07T09:56:23;101239.31;;;11.07;100.00
10008;BME280;5043;41.766;26.204;2024-03-07T09:58:50;101243.22;;;11.14;100.00
10008;BME280;5043;41.766;26.204;2024-03-07T10:01:20;101250.03;;;11.18;100.00
10008;BME280;5043;41.766;26.204;2024-03-07T10:03:50;101245.78;;;11.16;100.00
10008;BME280;5043;41.766;26.204;2024-03-07T10:06:19;101248.75;;;11.11;100.00
10008;BME280;5043;41.766;26.204;2024-03-07T10:08:47;101260.88;;;11.14;100.00
10008;BME280;5043;41.766;26.204;2024-03-07T10:11:12;101219.63;;;10.98;100.00
10008;BME280;5043;41.766;26.204;2024-03-07T10:13:39;101218.75;;;10.85;100.00
10008;BME280;5043;41.766;26.204;2024-03-07T10:16:07;101226.72;;;10.98;100.00
10008;BME280;5043;41.766;26.204;2024-03-07T10:18:41;101201.28;;;10.56;100.00
10008;BME280;5043;41.766;26.204;2024-03-07T10:21:08;101208.69;;;10.78;100.00
10008;BME280;5043;41.766;26.204;2024-03-07T10:23:33;101227.50;;;10.86;100.00
10008;BME280;5043;41.766;26.204;2024-03-07T10:26:00;101220.13;;;10.91;100.00
10008;BME280;5043;41.766;26.204;2024-03-07T10:28:26;101225.72;;;10.86;100.00
10008;BME280;5043;41.766;26.204;2024-03-07T10:30:53;101230.69;;;10.91;100.00
10008;BME280;5043;41.766;26.204;2024-03-07T10:33:18;101236.53;;;10.96;100.00
10008;BME280;5043;41.766;26.204;2024-03-07T10:35:48;101228.66;;;11.09;100.00
10008;BME280;5043;41.766;26.204;2024-03-07T10:38:14;101228.34;;;11.13;100.00
10008;BME280;5043;41.766;26.204;2024-03-07T10:40:40;101182.47;;;10.75;100.00
10008;BME280;5043;41.766;26.204;2024-03-07T10:43:10;101226.06;;;10.94;100.00
10008;BME280;5043;41.766;26.204;2024-03-07T10:45:56;101216.16;;;10.98;100.00
10008;BME280;5043;41.766;26.204;2024-03-07T10:48:25;101229.47;;;11.09;100.00
10008;BME280;5043;41.766;26.204;2024-03-07T10:51:10;101229.69;;;11.06;100.00
10008;BME280;5043;41.766;26.204;2024-03-07T10:53:55;101223.75;;;11.02;100.00
10008;BME280;5043;41.766;26.204;2024-03-07T10:59:31;101219.28;;;10.90;100.00
10008;BME280;5043;41.766;26.204;2024-03-07T11:02:20;101188.31;;;10.80;100.00
10008;BME280;5043;41.766;26.204;2024-03-07T11:04:50;101187.28;;;10.82;100.00
10008;BME280;5043;41.766;26.204;2024-03-07T11:07:21;101196.47;;;10.89;100.00
10008;BME280;5043;41.766;26.204;2024-03-07T11:09:49;101199.88;;;10.91;100.00
10008;BME280;5043;41.766;26.204;2024-03-07T11:12:19;101192.69;;;10.93;100.00
10008;BME280;5043;41.766;26.204;2024-03-07T11:14:47;101197.78;;;10.96;100.00
10008;BME280;5043;41.766;26.204;2024-03-07T11:17:14;101198.81;;;10.94;100.00
10008;BME280;5043;41.766;26.204;2024-03-07T11:19:41;101192.00;;;11.04;100.00
10008;BME280;5043;41.766;26.204;2024-03-07T11:22:07;101199.63;;;11.09;100.00
10008;BME280;5043;41.766;26.204;2024-03-07T11:24:43;101184.41;;;11.12;100.00
10008;BME280;5043;41.766;26.204;2024-03-07T11:27:10;101175.13;;;11.19;100.00
10008;BME280;5043;41.766;26.204;2024-03-07T11:32:11;101185.91;;;11.29;100.00
10008;BME280;5043;41.766;26.204;2024-03-07T11:34:39;101172.72;;;11.29;100.00
10008;BME280;5043;41.766;26.204;2024-03-07T11:37:08;101180.00;;;11.38;100.00
10008;BME280;5043;41.766;26.204;2024-03-07T11:39:47;101178.34;;;11.37;100.00
10008;BME280;5043;41.766;26.204;2024-03-07T11:42:23;101170.84;;;11.43;100.00
10008;BME280;5043;41.766;26.204;2024-03-07T11:44:51;101173.38;;;11.32;100.00
10008;BME280;5043;41.766;26.204;2024-03-07T11:47:18;101179.16;;;11.37;100.00
10008;BME280;5043;41.766;26.204;2024-03-07T11:49:44;101179.69;;;11.30;100.00
10008;BME280;5043;41.766;26.204;2024-03-07T11:52:15;101157.50;;;11.20;100.00
10008;BME280;5043;41.766;26.204;2024-03-07T11:54:42;101150.63;;;11.17;100.00
10008;BME280;5043;41.766;26.204;2024-03-07T11:57:20;101172.59;;;11.30;100.00
10008;BME280;5043;41.766;26.204;2024-03-07T11:59:52;101150.72;;;11.16;100.00
10008;BME280;5043;41.766;26.204;2024-03-07T12:02:18;101166.56;;;11.28;100.00
10008;BME280;5043;41.766;26.204;2024-03-07T12:04:48;101168.28;;;11.29;100.00
10008;BME280;5043;41.766;26.204;2024-03-07T12:07:15;101171.47;;;11.34;100.00
10008;BME280;5043;41.766;26.204;2024-03-07T12:09:43;101166.19;;;11.34;100.00
10008;BME280;5043;41.766;26.204;2024-03-07T12:12:16;101175.16;;;11.32;100.00
10008;BME280;5043;41.766;26.204;2024-03-07T12:14:43;101161.53;;;11.38;100.00
10008;BME280;5043;41.766;26.204;2024-03-07T12:17:09;101159.53;;;11.41;100.00
10008;BME280;5043;41.766;26.204;2024-03-07T12:19:35;101153.28;;;11.42;100.00
10008;BME280;5043;41.766;26.204;2024-03-07T12:22:01;101158.25;;;11.47;100.00
10008;BME280;5043;41.766;26.204;2024-03-07T12:24:28;101154.78;;;11.46;100.00
10008;BME280;5043;41.766;26.204;2024-03-07T12:27:15;101146.09;;;11.44;100.00
10008;BME280;5043;41.766;26.204;2024-03-07T12:29:42;101155.41;;;11.50;100.00
10008;BME280;5043;41.766;26.204;2024-03-07T12:32:11;101147.59;;;11.48;100.00
10008;BME280;5043;41.766;26.204;2024-03-07T12:34:39;101157.19;;;11.49;100.00
10008;BME280;5043;41.766;26.204;2024-03-07T12:37:06;101145.88;;;11.47;100.00
10008;BME280;5043;41.766;26.204;2024-03-07T12:39:33;101140.50;;;11.49;100.00
10008;BME280;5043;41.766;26.204;2024-03-07T12:42:12;101134.50;;;11.59;100.00
10008;BME280;5043;41.766;26.204;2024-03-07T12:44:43;101107.84;;;11.50;100.00
10008;BME280;5043;41.766;26.204;2024-03-07T12:47:17;101119.81;;;11.68;100.00
10008;BME280;5043;41.766;26.204;2024-03-07T12:49:43;101113.56;;;11.82;100.00
10008;BME280;5043;41.766;26.204;2024-03-07T12:52:10;101121.53;;;12.05;100.00
10008;BME280;5043;41.766;26.204;2024-03-07T12:54:38;101126.66;;;12.32;99.48
10008;BME280;5043;41.766;26.204;2024-03-07T12:57:10;101125.44;;;12.72;98.63
10008;BME280;5043;41.766;26.204;2024-03-07T12:59:37;101129.94;;;13.06;96.04
10008;BME280;5043;41.766;26.204;2024-03-07T13:02:06;101117.06;;;13.13;94.76
10008;BME280;5043;41.766;26.204;2024-03-07T13:04:32;101112.91;;;12.98;95.14
10008;BME280;5043;41.766;26.204;2024-03-07T13:06:58;101110.88;;;13.01;94.85